Terminal Aerodrome Forecast
Issued by NWS Shreveport, LA

Home | Current Version | Previous Version | Text Only | Print | Product List | Glossary On
Versions: 1 2 3 4 5 6 7 8 9 10 11 12 13 14 15
000
FTUS44 KSHV 241100 RRA
TAFLFK
TAF
KLFK 241143Z 2412/2512 33004KT P6SM SKC
     FM241600 01005KT P6SM SCT030
     FM241800 04006KT P6SM SCT050
     FM250200 07004KT P6SM SKC=

USA.gov is the U.S. government's official web portal to all federal, state and local government web resources and services.